createdAt,value
2022-10-19T00:01:13.360Z,14.57
2022-10-19T00:04:15.639Z,14.38
2022-10-19T00:07:17.929Z,18.52
2022-10-19T00:10:20.160Z,20.27
2022-10-19T00:13:23.747Z,15.30
2022-10-19T00:16:27.426Z,11.82
2022-10-19T00:19:29.752Z,18.13
2022-10-19T00:22:32.283Z,18.73
2022-10-19T00:25:34.814Z,16.48
2022-10-19T00:28:38.425Z,12.48
2022-10-19T00:31:41.214Z,14.20
2022-10-19T00:34:43.571Z,17.33
2022-10-19T00:37:46.100Z,16.00
2022-10-19T00:40:49.046Z,25.45
2022-10-19T00:43:56.439Z,13.52
2022-10-19T00:47:01.222Z,14.65
2022-10-19T00:50:04.254Z,12.88
2022-10-19T00:53:06.691Z,16.73
2022-10-19T00:56:12.678Z,18.27
2022-10-19T00:59:18.614Z,15.20
2022-10-19T01:02:20.852Z,22.23
2022-10-19T01:05:23.346Z,17.17
2022-10-19T01:08:25.966Z,17.23
2022-10-19T01:11:39.280Z,14.50
2022-10-19T01:14:50.590Z,12.80
2022-10-19T01:18:01.316Z,12.80
2022-10-19T01:21:12.088Z,17.35
2022-10-19T01:24:43.460Z,19.63
2022-10-19T01:27:54.422Z,10.73
2022-10-19T01:31:00.434Z,13.68
2022-10-19T01:34:06.072Z,11.98
2022-10-19T01:37:16.902Z,16.58
2022-10-19T01:40:26.894Z,17.92
2022-10-19T01:43:33.950Z,14.10
2022-10-19T01:46:39.500Z,13.40
2022-10-19T01:49:44.704Z,14.70
2022-10-19T01:52:49.075Z,15.13
2022-10-19T01:55:52.214Z,14.88
2022-10-19T01:58:56.041Z,14.18
2022-10-19T02:02:00.486Z,14.77
2022-10-19T02:05:03.370Z,15.55
2022-10-19T02:08:08.346Z,14.15
2022-10-19T02:11:10.674Z,13.38
2022-10-19T02:14:15.640Z,14.10
2022-10-19T02:17:21.556Z,14.10
2022-10-19T02:20:24.088Z,13.02
2022-10-19T02:23:27.677Z,12.73
2022-10-19T02:26:29.900Z,18.23
2022-10-19T02:29:32.788Z,13.98
2022-10-19T02:32:36.763Z,14.85
2022-10-19T02:35:39.505Z,11.80
2022-10-19T02:38:41.860Z,10.05
2022-10-19T02:41:47.205Z,11.65
2022-10-19T02:44:53.553Z,12.10
2022-10-19T02:48:00.133Z,12.63
2022-10-19T02:51:02.496Z,13.20
2022-10-19T02:54:06.415Z,19.08
2022-10-19T02:57:15.583Z,12.38
2022-10-19T03:00:18.158Z,13.32
2022-10-19T03:03:24.664Z,15.15
2022-10-19T03:06:26.845Z,15.95
2022-10-19T03:09:29.068Z,14.85
2022-10-19T03:12:31.385Z,14.90
2022-10-19T03:15:33.592Z,10.55
2022-10-19T03:18:37.268Z,10.60
2022-10-19T03:21:39.621Z,12.02
2022-10-19T03:24:41.901Z,10.60
2022-10-19T03:27:44.578Z,13.00
2022-10-19T03:30:46.830Z,11.25
2022-10-19T03:33:50.460Z,16.60
2022-10-19T03:36:52.710Z,13.60
2022-10-19T03:39:55.019Z,15.18
2022-10-19T03:42:57.221Z,12.75
2022-10-19T03:45:59.486Z,17.08
2022-10-19T03:49:03.399Z,14.13
2022-10-19T03:52:05.602Z,15.80
2022-10-19T03:55:08.936Z,13.82
2022-10-19T03:58:11.239Z,12.95
2022-10-19T04:01:15.570Z,9.35
2022-10-19T04:04:19.794Z,17.65
2022-10-19T04:07:22.158Z,14.23
2022-10-19T04:10:24.681Z,12.27
2022-10-19T04:13:27.140Z,11.48
2022-10-19T04:16:30.669Z,15.20
2022-10-19T04:19:34.294Z,14.40
2022-10-19T04:22:36.498Z,12.88
2022-10-19T04:25:38.718Z,16.17
2022-10-19T04:28:40.990Z,14.10
2022-10-19T04:31:43.340Z,16.83
2022-10-19T04:34:46.972Z,14.98
2022-10-19T04:37:49.222Z,16.95
2022-10-19T04:40:51.450Z,10.23
2022-10-19T04:43:58.367Z,10.40
2022-10-19T04:47:00.599Z,13.48
2022-10-19T04:50:04.887Z,10.73
2022-10-19T04:53:07.137Z,11.00
2022-10-19T04:56:11.908Z,13.27
2022-10-19T04:59:14.171Z,10.23
2022-10-19T05:02:16.360Z,14.65
2022-10-19T05:05:20.003Z,15.10
2022-10-19T05:08:24.108Z,10.70
2022-10-19T05:11:26.765Z,9.68
2022-10-19T05:14:29.070Z,11.02
2022-10-19T05:17:32.037Z,13.68
2022-10-19T05:20:36.142Z,11.65
2022-10-19T05:23:39.059Z,13.18
2022-10-19T05:26:41.865Z,12.73
2022-10-19T05:29:44.146Z,11.48
2022-10-19T05:32:46.457Z,12.95
2022-10-19T05:35:50.062Z,14.52
2022-10-19T05:38:53.490Z,15.65
2022-10-19T05:41:55.894Z,12.25
2022-10-19T05:44:58.142Z,11.27
2022-10-19T05:48:00.393Z,14.68
2022-10-19T05:51:05.300Z,14.85
2022-10-19T05:54:08.289Z,12.35
2022-10-19T05:57:10.575Z,14.48
2022-10-19T06:00:13.495Z,13.80
2022-10-19T06:03:17.696Z,14.45
2022-10-19T06:06:21.984Z,13.40
2022-10-19T06:09:24.482Z,13.32
2022-10-19T06:12:26.767Z,13.90
2022-10-19T06:15:28.997Z,17.02
2022-10-19T06:18:31.565Z,13.02
2022-10-19T06:21:35.364Z,10.82
2022-10-19T06:24:37.563Z,13.35
2022-10-19T06:27:39.789Z,13.55
2022-10-19T06:30:42.201Z,17.25
2022-10-19T06:33:47.246Z,10.68
2022-10-19T06:36:53.004Z,11.40
2022-10-19T06:39:55.218Z,11.40
2022-10-19T06:42:58.588Z,24.50
2022-10-19T06:46:04.160Z,12.68
2022-10-19T06:49:06.405Z,21.73
2022-10-19T06:52:10.044Z,17.73
2022-10-19T06:55:12.506Z,18.45
2022-10-19T06:58:14.743Z,18.60
2022-10-19T07:01:17.040Z,19.75
2022-10-19T07:04:19.340Z,19.52
2022-10-19T07:07:22.979Z,19.88
2022-10-19T07:10:25.386Z,18.60
2022-10-19T07:13:28.628Z,15.48
2022-10-19T07:16:30.822Z,18.67
2022-10-19T07:19:33.513Z,11.80
2022-10-19T07:22:37.107Z,10.43
2022-10-19T07:25:39.304Z,9.10
2022-10-19T07:28:43.631Z,8.43
2022-10-19T07:31:45.864Z,11.68
2022-10-19T07:34:48.104Z,9.18
2022-10-19T07:37:51.955Z,10.38
2022-10-19T07:41:00.264Z,8.25
2022-10-19T07:44:02.469Z,9.98
2022-10-19T07:47:06.114Z,10.35
2022-10-19T07:50:09.165Z,7.35
2022-10-19T07:53:12.730Z,8.55
2022-10-19T07:56:16.619Z,9.77
2022-10-19T07:59:18.805Z,9.40
2022-10-19T08:02:21.188Z,5.53
2022-10-19T08:05:23.615Z,9.38
2022-10-19T08:08:27.789Z,7.13
2022-10-19T08:11:32.500Z,6.95
2022-10-19T08:14:34.824Z,5.00
2022-10-19T08:17:38.605Z,7.20
2022-10-19T08:20:41.447Z,9.32
2022-10-19T08:23:45.036Z,6.00
2022-10-19T08:26:47.489Z,10.35
2022-10-19T08:29:49.963Z,7.40
2022-10-19T08:32:52.176Z,8.23
2022-10-19T08:35:54.428Z,7.30
2022-10-19T08:38:58.699Z,5.55
2022-10-19T08:42:03.286Z,7.47
2022-10-19T08:45:23.760Z,10.23
2022-10-19T08:48:28.110Z,12.48
2022-10-19T08:51:35.676Z,8.82
2022-10-19T08:54:43.496Z,10.55
2022-10-19T08:57:52.565Z,6.35
2022-10-19T09:01:00.520Z,8.40
2022-10-19T09:04:05.634Z,7.13
2022-10-19T09:07:24.799Z,9.70
2022-10-19T09:10:29.665Z,8.82
2022-10-19T09:13:41.729Z,8.48
2022-10-19T09:16:56.845Z,9.70
2022-10-19T09:20:09.322Z,9.70
2022-10-19T09:23:21.168Z,9.73
2022-10-19T09:26:27.832Z,11.32
2022-10-19T09:29:37.194Z,8.30
2022-10-19T09:32:39.705Z,9.40
2022-10-19T09:35:44.804Z,11.10
2022-10-19T09:38:48.058Z,11.00
2022-10-19T09:41:55.652Z,14.20
2022-10-19T09:44:59.840Z,12.77
2022-10-19T09:48:08.674Z,12.10
2022-10-19T09:51:14.941Z,18.55
2022-10-19T09:54:31.665Z,9.90
2022-10-19T09:57:42.141Z,14.68
2022-10-19T10:00:46.226Z,21.48
2022-10-19T10:03:53.771Z,13.18
2022-10-19T10:06:58.464Z,13.48
2022-10-19T10:10:00.814Z,13.82
2022-10-19T10:13:05.498Z,16.75
2022-10-19T10:16:09.658Z,12.30
2022-10-19T10:19:13.415Z,13.95
2022-10-19T10:22:24.944Z,15.82
2022-10-19T10:25:30.243Z,10.55
2022-10-19T10:28:33.869Z,14.30
2022-10-19T10:31:36.202Z,17.40
2022-10-19T10:35:00.001Z,18.92
2022-10-19T10:38:08.934Z,14.70
2022-10-19T10:41:12.768Z,14.02
2022-10-19T10:44:20.044Z,14.75
2022-10-19T10:47:22.565Z,18.77
2022-10-19T10:50:26.684Z,20.20
2022-10-19T10:53:32.953Z,22.40
2022-10-19T10:56:35.419Z,15.52
2022-10-19T10:59:45.511Z,16.20
2022-10-19T11:02:51.480Z,16.40
2022-10-19T11:05:57.087Z,28.00
2022-10-19T11:09:07.387Z,19.88
2022-10-19T11:12:12.683Z,21.25
2022-10-19T11:15:20.949Z,23.92
2022-10-19T11:18:25.895Z,23.45
2022-10-19T11:21:32.052Z,20.98
2022-10-19T11:24:45.086Z,26.30
2022-10-19T11:27:55.233Z,31.00
2022-10-19T11:31:04.549Z,18.45
2022-10-19T11:34:16.088Z,22.15
2022-10-19T11:37:26.172Z,16.90
2022-10-19T11:40:34.106Z,23.92
2022-10-19T11:43:42.645Z,25.67
2022-10-19T11:46:55.431Z,17.27
2022-10-19T11:53:22.857Z,23.25
2022-10-19T11:56:44.856Z,28.15
2022-10-19T12:00:14.110Z,18.80
2022-10-19T12:03:58.440Z,20.52
2022-10-19T12:07:06.427Z,18.83
2022-10-19T12:10:20.261Z,21.02
2022-10-19T12:13:27.448Z,23.90
2022-10-19T12:16:36.172Z,23.35
2022-10-19T12:19:42.685Z,22.58
2022-10-19T12:22:45.610Z,17.95
2022-10-19T12:25:48.726Z,17.30
2022-10-19T12:28:54.688Z,25.45
2022-10-19T12:31:57.994Z,16.15
2022-10-19T12:35:08.656Z,16.98
2022-10-19T12:38:15.865Z,11.65
2022-10-19T12:41:23.810Z,19.73
2022-10-19T12:44:41.258Z,17.40
2022-10-19T12:48:15.910Z,22.30
2022-10-19T12:51:19.562Z,16.38
2022-10-19T12:54:22.927Z,14.90
2022-10-19T12:57:28.675Z,21.98
2022-10-19T13:00:32.918Z,12.05
2022-10-19T13:03:37.358Z,23.13
2022-10-19T13:06:42.961Z,21.27
2022-10-19T13:09:47.331Z,16.70
2022-10-19T13:12:50.290Z,21.83
2022-10-19T13:15:52.811Z,19.75
2022-10-19T13:19:05.068Z,16.13
2022-10-19T13:22:27.762Z,16.40
2022-10-19T13:25:30.562Z,17.60
2022-10-19T13:28:37.448Z,15.35
2022-10-19T13:31:39.683Z,18.88
2022-10-19T13:34:41.979Z,14.05
2022-10-19T13:37:45.677Z,17.85
2022-10-19T13:41:09.209Z,14.07
2022-10-19T13:44:20.269Z,16.83
2022-10-19T13:47:29.537Z,13.15
2022-10-19T13:50:35.994Z,14.18
2022-10-19T13:53:44.212Z,16.02
2022-10-19T13:56:59.117Z,16.30
2022-10-19T14:00:16.280Z,15.18
2022-10-19T14:03:26.590Z,15.27
2022-10-19T14:06:32.569Z,17.33
2022-10-19T14:10:00.100Z,11.25
2022-10-19T14:13:03.570Z,11.70
2022-10-19T14:16:06.527Z,17.63
2022-10-19T14:19:12.903Z,14.43
2022-10-19T14:22:20.483Z,15.52
2022-10-19T14:25:27.149Z,13.57
2022-10-19T14:28:30.389Z,14.68
2022-10-19T14:31:35.323Z,17.50
2022-10-19T14:34:40.390Z,14.52
2022-10-19T14:37:43.426Z,9.35
2022-10-19T14:40:47.124Z,19.60
2022-10-19T14:43:49.428Z,17.15
2022-10-19T14:46:51.887Z,13.60
2022-10-19T14:49:54.157Z,12.05
2022-10-19T14:52:58.928Z,15.52
2022-10-19T14:56:07.001Z,13.18
2022-10-19T14:59:20.273Z,21.45
2022-10-19T15:02:24.976Z,19.17
2022-10-19T15:05:29.752Z,13.88
2022-10-19T15:08:37.470Z,11.02
2022-10-19T15:11:43.971Z,10.13
2022-10-19T15:14:46.586Z,17.02
2022-10-19T15:17:51.713Z,12.90
2022-10-19T15:21:12.642Z,10.98
2022-10-19T15:24:24.720Z,11.43
2022-10-19T15:30:34.342Z,12.30
2022-10-19T15:33:38.443Z,14.73
2022-10-19T15:36:54.789Z,12.75
2022-10-19T15:39:57.108Z,11.25
2022-10-19T15:43:00.919Z,11.90
2022-10-19T15:46:05.453Z,12.80
2022-10-19T15:49:51.250Z,16.13
2022-10-19T15:52:53.443Z,15.45
2022-10-19T15:55:55.802Z,12.75
2022-10-19T15:59:00.973Z,10.55
2022-10-19T16:02:10.469Z,10.00
2022-10-19T16:05:12.774Z,10.98
2022-10-19T16:08:15.235Z,9.55
2022-10-19T16:11:18.833Z,17.23
2022-10-19T16:14:22.520Z,12.52
2022-10-19T16:17:24.771Z,12.80
2022-10-19T16:20:29.339Z,13.05
2022-10-19T16:23:36.579Z,13.90
2022-10-19T16:26:41.690Z,10.18
2022-10-19T16:29:47.410Z,14.15
2022-10-19T16:32:49.797Z,10.70
2022-10-19T16:35:52.099Z,9.82
2022-10-19T16:38:54.459Z,11.93
2022-10-19T16:41:56.723Z,14.20
2022-10-19T16:45:00.378Z,16.05
2022-10-19T16:48:05.396Z,6.68
2022-10-19T16:51:35.641Z,19.00
2022-10-19T16:54:37.918Z,10.25
2022-10-19T16:57:40.197Z,13.63
2022-10-19T17:00:43.879Z,11.80
2022-10-19T17:03:47.805Z,16.27
2022-10-19T17:06:50.158Z,14.10
2022-10-19T17:09:54.905Z,11.23
2022-10-19T17:12:57.411Z,11.98
2022-10-19T17:16:03.602Z,17.45
2022-10-19T17:19:06.850Z,14.30
2022-10-19T17:22:09.063Z,10.38
2022-10-19T17:25:11.294Z,14.05
2022-10-19T17:28:13.583Z,15.90
2022-10-19T17:31:17.233Z,11.40
2022-10-19T17:34:19.511Z,14.35
2022-10-19T17:37:21.794Z,13.18
2022-10-19T17:40:25.727Z,13.65
2022-10-19T17:43:27.902Z,19.35
2022-10-19T17:46:33.579Z,15.30
2022-10-19T17:49:37.203Z,12.73
2022-10-19T17:52:39.750Z,12.63
2022-10-19T17:55:42.044Z,20.27
2022-10-19T17:58:44.855Z,17.75
2022-10-19T18:01:48.509Z,13.65
2022-10-19T18:04:50.800Z,14.00
2022-10-19T18:07:53.725Z,20.08
2022-10-19T18:10:59.519Z,12.55
2022-10-19T18:14:02.444Z,16.67
2022-10-19T18:17:06.400Z,15.00
2022-10-19T18:20:09.797Z,16.17
2022-10-19T18:23:12.207Z,15.70
2022-10-19T18:26:19.569Z,15.27
2022-10-19T18:29:24.648Z,16.73
2022-10-19T18:32:28.252Z,21.40
2022-10-19T18:35:30.695Z,14.98
2022-10-19T18:38:33.253Z,15.93
2022-10-19T18:41:35.631Z,12.73
2022-10-19T18:44:37.988Z,17.10
2022-10-19T18:47:41.590Z,10.93
2022-10-19T18:50:43.774Z,21.80
2022-10-19T18:53:47.309Z,15.65
2022-10-19T18:56:49.573Z,13.38
2022-10-19T18:59:51.813Z,15.68
2022-10-19T19:02:55.736Z,20.40
2022-10-19T19:05:59.870Z,11.90
2022-10-19T19:09:04.964Z,13.15
2022-10-19T19:12:07.166Z,17.83
2022-10-19T19:15:10.589Z,13.15
2022-10-19T19:18:14.207Z,16.73
2022-10-19T19:21:18.365Z,13.77
2022-10-19T19:24:22.107Z,15.73
2022-10-19T19:27:29.467Z,14.85
2022-10-19T19:30:33.877Z,15.48
2022-10-19T19:33:38.329Z,14.82
2022-10-19T19:36:47.967Z,11.27
2022-10-19T19:39:50.988Z,15.63
2022-10-19T19:42:53.241Z,16.25
2022-10-19T19:45:56.702Z,12.55
2022-10-19T19:49:01.656Z,14.98
2022-10-19T19:52:03.962Z,14.40
2022-10-19T19:55:06.577Z,15.45
2022-10-19T19:58:08.803Z,11.32
2022-10-19T20:01:13.442Z,12.77
2022-10-19T20:04:17.444Z,14.77
2022-10-19T20:07:19.797Z,14.88
2022-10-19T20:10:22.091Z,19.13
2022-10-19T20:13:24.328Z,16.48
2022-10-19T20:16:29.369Z,15.73
2022-10-19T20:19:33.316Z,21.67
2022-10-19T20:22:35.888Z,13.75
2022-10-19T20:25:38.136Z,12.13
2022-10-19T20:28:40.412Z,14.60
2022-10-19T20:31:42.629Z,13.02
2022-10-19T20:34:46.282Z,10.13
2022-10-19T20:37:49.358Z,13.07
2022-10-19T20:40:52.116Z,12.02
2022-10-19T20:43:55.220Z,20.35
2022-10-19T20:46:57.477Z,10.77
2022-10-19T20:53:05.529Z,13.68
2022-10-19T20:56:10.001Z,11.07
2022-10-19T20:59:14.123Z,16.50
2022-10-19T21:02:16.354Z,20.27
2022-10-19T21:05:20.020Z,13.18
2022-10-19T21:08:22.238Z,19.88
2022-10-19T21:11:27.050Z,18.05
2022-10-19T21:14:30.194Z,13.18
2022-10-19T21:17:32.545Z,19.42
2022-10-19T21:20:36.173Z,26.95
2022-10-19T21:23:38.414Z,14.52
2022-10-19T21:26:41.066Z,13.93
2022-10-19T21:29:43.322Z,15.00
2022-10-19T21:32:45.604Z,10.57
2022-10-19T21:38:52.466Z,16.40
2022-10-19T21:41:55.077Z,13.93
2022-10-19T21:45:06.215Z,13.15
2022-10-19T21:48:19.867Z,14.68
2022-10-19T21:51:31.814Z,13.50
2022-10-19T21:57:36.271Z,16.70
2022-10-19T22:00:38.777Z,20.80
2022-10-19T22:03:41.065Z,13.02
2022-10-19T22:06:45.079Z,12.82
2022-10-19T22:09:47.328Z,12.45
2022-10-19T22:12:49.636Z,11.13
2022-10-19T22:15:51.893Z,16.05
2022-10-19T22:18:56.048Z,15.27
2022-10-19T22:21:59.737Z,15.23
2022-10-19T22:25:01.988Z,19.48
2022-10-19T22:28:04.499Z,17.75
2022-10-19T22:31:06.776Z,22.13
2022-10-19T22:34:11.097Z,20.67
2022-10-19T22:37:14.670Z,19.75
2022-10-19T22:40:16.961Z,20.45
2022-10-19T22:43:19.219Z,21.15
2022-10-19T22:46:21.611Z,21.63
2022-10-19T22:49:24.015Z,16.92
2022-10-19T22:52:29.270Z,19.95
2022-10-19T22:55:31.483Z,18.60
2022-10-19T22:58:33.700Z,24.88
2022-10-19T23:01:36.224Z,23.85
2022-10-19T23:04:38.478Z,29.00
2022-10-19T23:07:42.072Z,25.35
2022-10-19T23:10:44.283Z,21.70
2022-10-19T23:13:46.732Z,23.92
2022-10-19T23:16:48.970Z,22.40
2022-10-19T23:19:51.226Z,24.70
2022-10-19T23:22:54.808Z,24.40
2022-10-19T23:25:58.826Z,23.77
2022-10-19T23:29:01.055Z,24.95
2022-10-19T23:32:03.248Z,26.05
2022-10-19T23:35:06.634Z,21.40
2022-10-19T23:38:10.202Z,26.15
2022-10-19T23:41:12.875Z,22.63
2022-10-19T23:44:15.379Z,25.15
2022-10-19T23:47:17.602Z,21.00
2022-10-19T23:50:19.890Z,22.67
2022-10-19T23:53:23.580Z,26.02
2022-10-19T23:56:27.720Z,27.52
2022-10-19T23:59:29.952Z,32.65
